createdAt,value
2023-02-27T00:02:16.682Z,0.70
2023-02-27T00:04:44.234Z,0.70
2023-02-27T00:07:11.564Z,0.60
2023-02-27T00:09:40.162Z,0.70
2023-02-27T00:12:08.378Z,0.70
2023-02-27T00:14:35.684Z,0.60
2023-02-27T00:17:02.942Z,0.60
2023-02-27T00:19:30.108Z,0.60
2023-02-27T00:21:57.154Z,0.60
2023-02-27T00:24:24.306Z,0.60
2023-02-27T00:26:51.488Z,0.60
2023-02-27T00:29:19.728Z,0.50
2023-02-27T00:31:52.048Z,0.50
2023-02-27T00:34:19.187Z,0.40
2023-02-27T00:36:46.236Z,0.40
2023-02-27T00:39:14.497Z,0.30
2023-02-27T00:41:41.725Z,0.30
2023-02-27T00:44:08.814Z,0.30
2023-02-27T00:46:35.960Z,0.20
2023-02-27T00:49:03.074Z,0.20
2023-02-27T00:51:30.184Z,0.10
2023-02-27T00:53:57.601Z,0.00
2023-02-27T00:56:24.913Z,0.00
2023-02-27T00:58:52.024Z,0.00
2023-02-27T01:01:21.749Z,-0.10
2023-02-27T01:03:48.940Z,-0.10
2023-02-27T01:06:17.304Z,-0.10
2023-02-27T01:08:44.380Z,-0.10
2023-02-27T01:11:11.511Z,-0.10
2023-02-27T01:13:38.699Z,-0.10
2023-02-27T01:16:08.441Z,-0.10
2023-02-27T01:18:35.551Z,-0.10
2023-02-27T01:21:02.726Z,-0.10
2023-02-27T01:23:29.920Z,-0.10
2023-02-27T01:25:56.977Z,-0.20
2023-02-27T01:28:24.121Z,-0.20
2023-02-27T01:30:51.267Z,-0.20
2023-02-27T01:33:18.437Z,-0.30
2023-02-27T01:35:45.725Z,-0.30
2023-02-27T01:38:12.834Z,-0.30
2023-02-27T01:40:42.711Z,-0.40
2023-02-27T01:43:17.171Z,-0.30
2023-02-27T01:45:49.584Z,-0.30
2023-02-27T01:48:23.224Z,-0.30
2023-02-27T01:50:58.709Z,-0.30
2023-02-27T01:53:29.008Z,-0.30
2023-02-27T01:56:03.113Z,-0.40
2023-02-27T01:58:31.316Z,-0.40
2023-02-27T02:00:58.490Z,-0.40
2023-02-27T02:03:50.671Z,-0.40
2023-02-27T02:06:18.888Z,-0.40
2023-02-27T02:08:48.893Z,-0.40
2023-02-27T02:11:18.684Z,-0.40
2023-02-27T02:13:45.928Z,-0.50
2023-02-27T02:16:51.600Z,-0.50
2023-02-27T02:19:48.190Z,-0.50
2023-02-27T02:22:52.486Z,-0.60
2023-02-27T02:25:31.365Z,-0.60
2023-02-27T02:28:28.802Z,-0.60
2023-02-27T02:31:45.233Z,-0.50
2023-02-27T02:34:27.271Z,-0.50
2023-02-27T02:37:18.890Z,-0.40
2023-02-27T02:40:09.376Z,-0.40
2023-02-27T02:43:07.814Z,-0.40
2023-02-27T02:46:10.377Z,-0.40
2023-02-27T02:49:03.674Z,-0.40
2023-02-27T02:51:40.993Z,-0.30
2023-02-27T02:54:32.795Z,-0.30
2023-02-27T02:57:17.887Z,-0.30
2023-02-27T03:00:00.015Z,-0.30
2023-02-27T03:02:34.330Z,-0.40
2023-02-27T03:05:36.872Z,-0.40
2023-02-27T03:08:13.820Z,-0.30
2023-02-27T03:11:01.692Z,-0.30
2023-02-27T03:13:36.966Z,-0.30
2023-02-27T03:16:10.296Z,-0.30
2023-02-27T03:18:53.691Z,-0.30
2023-02-27T03:21:31.068Z,-0.40
2023-02-27T03:24:03.320Z,-0.40
2023-02-27T03:26:40.051Z,-0.40
2023-02-27T03:29:12.185Z,-0.40
2023-02-27T03:32:03.768Z,-0.40
2023-02-27T03:34:37.870Z,-0.40
2023-02-27T03:37:33.020Z,-0.40
2023-02-27T03:40:24.676Z,-0.40
2023-02-27T03:43:01.042Z,-0.40
2023-02-27T03:46:02.607Z,-0.40
2023-02-27T03:48:30.222Z,-0.40
2023-02-27T03:50:57.538Z,-0.30
2023-02-27T03:53:51.778Z,-1.00
2023-02-27T03:56:25.935Z,-0.30
2023-02-27T03:58:54.078Z,-0.30
2023-02-27T04:01:21.834Z,-0.30
2023-02-27T04:03:59.501Z,-0.30
2023-02-27T04:07:23.609Z,-0.30
2023-02-27T04:10:21.671Z,-0.30
2023-02-27T04:13:15.029Z,-0.30
2023-02-27T04:15:48.172Z,-0.30
2023-02-27T04:18:51.763Z,-0.40
2023-02-27T04:21:25.471Z,-0.40
2023-02-27T04:24:58.481Z,-0.40
2023-02-27T04:27:45.397Z,-0.30
2023-02-27T04:30:36.733Z,-0.30
2023-02-27T04:33:15.140Z,-0.40
2023-02-27T04:36:21.529Z,-0.40
2023-02-27T04:39:18.069Z,-0.40
2023-02-27T04:42:00.488Z,-0.30
2023-02-27T04:44:30.313Z,-0.30
2023-02-27T04:46:59.768Z,-0.30
2023-02-27T04:49:35.777Z,-0.30
2023-02-27T04:52:16.196Z,-0.40
2023-02-27T04:55:00.368Z,-0.30
2023-02-27T04:57:41.308Z,-0.30
2023-02-27T05:00:12.051Z,-0.30
2023-02-27T05:02:52.930Z,-0.40
2023-02-27T05:05:25.765Z,-0.30
2023-02-27T05:08:19.649Z,-0.30
2023-02-27T05:10:58.744Z,-0.30
2023-02-27T05:13:40.747Z,-0.30
2023-02-27T05:16:21.011Z,-0.30
2023-02-27T05:18:48.848Z,-0.30
2023-02-27T05:21:31.266Z,-0.30
2023-02-27T05:24:06.771Z,-0.30
2023-02-27T05:27:03.557Z,-0.30
2023-02-27T05:29:49.329Z,-0.30
2023-02-27T05:32:36.795Z,-0.30
2023-02-27T05:35:29.017Z,-0.30
2023-02-27T05:38:07.893Z,-0.30
2023-02-27T05:40:41.939Z,-0.30
2023-02-27T05:43:59.702Z,-0.30
2023-02-27T05:46:33.296Z,-0.30
2023-02-27T05:49:23.745Z,-0.30
2023-02-27T05:51:54.930Z,-0.30
2023-02-27T05:54:48.838Z,-0.30
2023-02-27T05:57:24.044Z,-0.40
2023-02-27T06:00:21.522Z,-0.40
2023-02-27T06:02:48.757Z,-0.40
2023-02-27T06:05:18.516Z,-0.40
2023-02-27T06:07:45.732Z,-0.40
2023-02-27T06:10:19.887Z,-0.40
2023-02-27T06:12:47.184Z,-0.40
2023-02-27T06:15:14.550Z,-0.40
2023-02-27T06:17:41.781Z,-0.40
2023-02-27T06:20:10.354Z,-0.40
2023-02-27T06:22:37.766Z,-0.30
2023-02-27T06:25:05.497Z,-0.40
2023-02-27T06:27:32.611Z,-0.30
2023-02-27T06:29:59.765Z,-0.40
2023-02-27T06:32:26.997Z,-0.30
2023-02-27T06:34:54.318Z,-0.30
2023-02-27T06:37:21.966Z,-0.30
2023-02-27T06:39:49.226Z,-0.20
2023-02-27T06:42:17.393Z,-0.10
2023-02-27T06:44:44.677Z,-0.10
2023-02-27T06:47:11.797Z,0.10
2023-02-27T06:49:39.196Z,0.10
2023-02-27T06:52:06.374Z,0.10
2023-02-27T06:54:34.035Z,0.20
2023-02-27T06:57:01.384Z,0.20
2023-02-27T06:59:28.585Z,0.30
2023-02-27T07:01:55.869Z,0.30
2023-02-27T07:04:23.243Z,0.40
2023-02-27T07:07:34.941Z,0.40
2023-02-27T07:09:37.648Z,0.40
2023-02-27T07:12:05.646Z,0.50
2023-02-27T07:14:32.827Z,0.50
2023-02-27T07:17:04.330Z,0.50
2023-02-27T07:19:33.752Z,0.50
2023-02-27T07:22:00.882Z,0.60
2023-02-27T07:24:28.124Z,0.60
2023-02-27T07:26:55.265Z,0.60
2023-02-27T07:29:22.480Z,0.70
2023-02-27T07:31:49.592Z,0.70
2023-02-27T07:34:16.851Z,0.80
2023-02-27T07:36:44.250Z,0.80
2023-02-27T07:39:13.278Z,0.80
2023-02-27T07:41:40.705Z,0.90
2023-02-27T07:44:08.662Z,0.90
2023-02-27T07:46:36.393Z,1.00
2023-02-27T07:49:03.684Z,1.00
2023-02-27T07:51:30.760Z,1.10
2023-02-27T07:53:59.005Z,1.20
2023-02-27T07:56:27.316Z,1.40
2023-02-27T07:58:54.664Z,1.60
2023-02-27T08:01:21.894Z,1.90
2023-02-27T08:03:49.046Z,2.20
2023-02-27T08:06:16.151Z,2.50
2023-02-27T08:08:43.407Z,2.80
2023-02-27T08:11:19.909Z,3.00
2023-02-27T08:14:03.201Z,3.30
2023-02-27T08:16:32.177Z,3.60
2023-02-27T08:19:00.903Z,3.80
2023-02-27T08:21:30.185Z,3.90
2023-02-27T08:23:57.518Z,3.90
2023-02-27T08:26:24.694Z,3.80
2023-02-27T08:28:52.184Z,3.80
2023-02-27T08:31:19.690Z,3.80
2023-02-27T08:33:48.295Z,3.90
2023-02-27T08:36:15.829Z,4.10
2023-02-27T08:38:43.351Z,4.30
2023-02-27T08:41:10.541Z,4.40
2023-02-27T08:43:37.682Z,4.50
2023-02-27T08:46:05.076Z,4.40
2023-02-27T08:48:32.261Z,4.40
2023-02-27T08:50:59.320Z,4.30
2023-02-27T08:53:26.564Z,4.30
2023-02-27T08:55:53.829Z,4.30
2023-02-27T08:58:21.201Z,4.30
2023-02-27T09:00:48.576Z,4.30
2023-02-27T09:03:15.723Z,4.40
2023-02-27T09:05:43.000Z,4.60
2023-02-27T09:08:10.076Z,4.60
2023-02-27T09:10:37.424Z,4.90
2023-02-27T09:13:04.905Z,5.50
2023-02-27T09:15:34.577Z,6.00
2023-02-27T09:18:03.262Z,6.50
2023-02-27T09:20:35.985Z,6.90
2023-02-27T09:23:04.490Z,7.20
2023-02-27T09:25:31.629Z,7.50
2023-02-27T09:27:59.167Z,7.80
2023-02-27T09:30:27.104Z,8.40
2023-02-27T09:32:54.477Z,8.80
2023-02-27T09:35:21.876Z,8.80
2023-02-27T09:37:49.612Z,8.70
2023-02-27T09:40:30.908Z,8.60
2023-02-27T09:43:14.523Z,8.60
2023-02-27T09:45:42.223Z,8.90
2023-02-27T09:48:54.368Z,8.90
2023-02-27T09:51:22.897Z,8.60
2023-02-27T09:53:54.425Z,8.50
2023-02-27T09:56:47.898Z,8.40
2023-02-27T09:59:43.036Z,8.50
2023-02-27T10:02:40.671Z,8.70
2023-02-27T10:05:35.915Z,8.60
2023-02-27T10:08:29.936Z,8.40
2023-02-27T10:11:15.822Z,8.10
2023-02-27T10:14:07.403Z,8.10
2023-02-27T10:16:36.171Z,8.50
2023-02-27T10:19:14.144Z,8.90
2023-02-27T10:21:46.813Z,9.40
2023-02-27T10:24:39.936Z,10.10
2023-02-27T10:27:16.818Z,10.70
2023-02-27T10:29:44.139Z,11.30
2023-02-27T10:32:37.945Z,11.80
2023-02-27T10:35:34.593Z,12.60
2023-02-27T10:38:17.898Z,13.60
2023-02-27T10:40:46.392Z,13.60
2023-02-27T10:43:18.462Z,13.60
2023-02-27T10:45:45.632Z,14.10
2023-02-27T10:48:13.353Z,14.80
2023-02-27T10:50:45.381Z,15.80
2023-02-27T10:53:25.896Z,15.40
2023-02-27T10:56:02.096Z,15.70
2023-02-27T10:58:34.691Z,15.60
2023-02-27T11:01:09.123Z,14.70
2023-02-27T11:03:42.838Z,13.40
2023-02-27T11:06:14.029Z,11.80
2023-02-27T11:08:41.080Z,10.80
2023-02-27T11:11:11.806Z,11.00
2023-02-27T11:13:42.892Z,11.80
2023-02-27T11:16:21.772Z,12.60
2023-02-27T11:18:51.677Z,14.00
2023-02-27T11:21:29.430Z,14.60
2023-02-27T11:24:10.664Z,14.50
2023-02-27T11:26:41.342Z,15.20
2023-02-27T11:29:18.867Z,16.10
2023-02-27T11:31:54.878Z,15.70
2023-02-27T11:34:33.065Z,14.90
2023-02-27T11:37:26.937Z,13.70
2023-02-27T11:40:12.855Z,12.50
2023-02-27T11:42:53.770Z,12.40
2023-02-27T11:46:13.279Z,14.20
2023-02-27T11:48:23.231Z,16.00
2023-02-27T11:51:18.394Z,17.30
2023-02-27T11:54:07.100Z,18.20
2023-02-27T11:56:47.597Z,18.20
2023-02-27T11:59:43.506Z,18.70
2023-02-27T12:02:43.356Z,19.20
2023-02-27T12:05:44.370Z,19.10
2023-02-27T12:08:36.826Z,19.20
2023-02-27T12:11:14.129Z,19.30
2023-02-27T12:13:48.398Z,19.30
2023-02-27T12:16:46.967Z,19.40
2023-02-27T12:19:31.649Z,19.70
2023-02-27T12:22:06.150Z,20.50
2023-02-27T12:24:48.422Z,20.30
2023-02-27T12:27:28.025Z,20.20
2023-02-27T12:30:05.962Z,20.00
2023-02-27T12:32:50.306Z,19.50
2023-02-27T12:35:33.278Z,19.90
2023-02-27T12:38:01.538Z,20.30
2023-02-27T12:40:37.924Z,20.70
2023-02-27T12:43:38.019Z,20.50
2023-02-27T12:46:16.432Z,21.10
2023-02-27T12:49:15.934Z,21.00
2023-02-27T12:52:04.444Z,21.60
2023-02-27T12:55:04.661Z,21.80
2023-02-27T12:58:16.330Z,19.60
2023-02-27T13:00:48.679Z,18.10
2023-02-27T13:03:54.461Z,14.20
2023-02-27T13:06:27.783Z,12.70
2023-02-27T13:09:41.625Z,12.50
2023-02-27T13:12:28.501Z,11.90
2023-02-27T13:15:23.872Z,11.40
2023-02-27T13:18:18.912Z,11.40
2023-02-27T13:21:20.943Z,11.70
2023-02-27T13:24:07.303Z,12.20
2023-02-27T13:26:44.223Z,14.40
2023-02-27T13:29:16.409Z,15.60
2023-02-27T13:31:55.735Z,16.20
2023-02-27T13:34:45.719Z,16.40
2023-02-27T13:37:13.207Z,16.10
2023-02-27T13:39:47.186Z,15.10
2023-02-27T13:42:27.123Z,14.60
2023-02-27T13:45:01.390Z,14.30
2023-02-27T13:47:47.494Z,14.10
2023-02-27T13:50:18.048Z,13.40
2023-02-27T13:52:47.013Z,12.70
2023-02-27T13:55:31.940Z,12.30
2023-02-27T13:58:01.185Z,11.70
2023-02-27T14:00:32.620Z,11.00
2023-02-27T14:03:19.564Z,10.50
2023-02-27T14:05:48.861Z,10.30
2023-02-27T14:08:22.773Z,10.70
2023-02-27T14:11:39.994Z,10.40
2023-02-27T14:14:49.097Z,10.10
2023-02-27T14:17:38.223Z,9.60
2023-02-27T14:20:32.151Z,9.30
2023-02-27T14:23:20.673Z,8.70
2023-02-27T14:25:57.138Z,8.40
2023-02-27T14:28:55.871Z,8.10
2023-02-27T14:31:27.313Z,8.00
2023-02-27T14:33:59.148Z,8.40
2023-02-27T14:36:30.484Z,7.60
2023-02-27T14:39:00.647Z,7.50
2023-02-27T14:41:48.705Z,7.40
2023-02-27T14:44:27.943Z,7.30
2023-02-27T14:46:57.577Z,7.40
2023-02-27T14:49:34.230Z,7.40
2023-02-27T14:52:24.125Z,7.40
2023-02-27T14:54:53.571Z,7.30
2023-02-27T14:57:26.814Z,7.30
2023-02-27T14:59:55.256Z,7.40
2023-02-27T15:02:36.030Z,7.40
2023-02-27T15:05:03.659Z,7.30
2023-02-27T15:07:34.152Z,7.20
2023-02-27T15:10:05.549Z,7.10
2023-02-27T15:12:39.360Z,7.10
2023-02-27T15:15:09.895Z,7.00
2023-02-27T15:17:43.603Z,7.10
2023-02-27T15:20:30.292Z,7.10
2023-02-27T15:23:02.228Z,7.10
2023-02-27T15:25:34.786Z,7.10
2023-02-27T15:28:23.878Z,7.10
2023-02-27T15:30:54.138Z,7.10
2023-02-27T15:33:29.405Z,7.20
2023-02-27T15:35:58.533Z,7.00
2023-02-27T15:38:34.689Z,6.90
2023-02-27T15:41:04.069Z,6.90
2023-02-27T15:43:32.561Z,6.90
2023-02-27T15:46:00.237Z,6.80
2023-02-27T15:48:27.977Z,6.90
2023-02-27T15:51:01.143Z,6.90
2023-02-27T15:53:34.134Z,6.80
2023-02-27T15:56:06.814Z,6.70
2023-02-27T15:58:49.026Z,6.60
2023-02-27T16:01:35.226Z,6.50
2023-02-27T16:04:06.965Z,6.40
2023-02-27T16:06:39.240Z,6.20
2023-02-27T16:09:19.411Z,6.10
2023-02-27T16:11:47.030Z,5.90
2023-02-27T16:14:42.422Z,6.70
2023-02-27T16:17:31.582Z,5.80
2023-02-27T16:20:21.231Z,5.70
2023-02-27T16:23:16.974Z,5.70
2023-02-27T16:26:26.492Z,5.60
2023-02-27T16:29:02.627Z,5.50
2023-02-27T16:31:39.520Z,5.50
2023-02-27T16:34:13.295Z,5.50
2023-02-27T16:36:43.904Z,5.50
2023-02-27T16:39:13.409Z,5.40
2023-02-27T16:41:40.856Z,5.30
2023-02-27T16:44:08.777Z,5.30
2023-02-27T16:46:36.790Z,5.10
2023-02-27T16:49:17.881Z,5.00
2023-02-27T16:51:50.349Z,4.90
2023-02-27T16:54:18.742Z,4.90
2023-02-27T16:56:47.425Z,4.90
2023-02-27T16:59:36.273Z,4.90
2023-02-27T17:02:13.413Z,4.90
2023-02-27T17:04:46.942Z,4.90
2023-02-27T17:07:20.389Z,4.90
2023-02-27T17:09:48.498Z,4.90
2023-02-27T17:12:16.071Z,4.80
2023-02-27T17:14:43.725Z,4.90
2023-02-27T17:17:11.566Z,4.90
2023-02-27T17:19:39.493Z,4.90
2023-02-27T17:22:06.981Z,4.80
2023-02-27T17:24:34.486Z,4.80
2023-02-27T17:27:01.955Z,4.80
2023-02-27T17:29:29.618Z,4.80
2023-02-27T17:31:57.616Z,4.80
2023-02-27T17:34:25.144Z,4.70
2023-02-27T17:36:53.328Z,4.70
2023-02-27T17:39:20.779Z,4.60
2023-02-27T17:41:48.152Z,4.50
2023-02-27T17:44:15.542Z,4.30
2023-02-27T17:46:42.842Z,4.20
2023-02-27T17:49:10.431Z,4.10
2023-02-27T17:51:37.940Z,4.00
2023-02-27T17:54:06.900Z,3.80
2023-02-27T17:56:36.775Z,3.70
2023-02-27T17:59:05.446Z,3.50
2023-02-27T18:01:32.958Z,3.40
2023-02-27T18:04:00.317Z,3.30
2023-02-27T18:06:28.732Z,3.20
2023-02-27T18:08:56.388Z,3.20
2023-02-27T18:11:23.708Z,3.10
2023-02-27T18:13:51.308Z,3.10
2023-02-27T18:16:21.948Z,3.10
2023-02-27T18:18:50.059Z,3.10
2023-02-27T18:21:21.350Z,3.10
2023-02-27T18:23:50.325Z,3.20
2023-02-27T18:26:35.826Z,3.20
2023-02-27T18:29:07.772Z,3.20
2023-02-27T18:31:42.873Z,3.10
2023-02-27T18:34:10.840Z,3.10
2023-02-27T18:36:38.632Z,3.10
2023-02-27T18:39:06.373Z,3.00
2023-02-27T18:41:34.641Z,2.90
2023-02-27T18:44:01.751Z,2.80
2023-02-27T18:46:29.563Z,2.80
2023-02-27T18:48:56.896Z,2.80
2023-02-27T18:51:24.580Z,2.80
2023-02-27T18:53:52.098Z,2.70
2023-02-27T18:56:24.032Z,2.70
2023-02-27T18:58:52.893Z,2.70
2023-02-27T19:01:33.166Z,2.70
2023-02-27T19:04:05.793Z,2.80
2023-02-27T19:06:38.882Z,2.90
2023-02-27T19:09:11.334Z,3.00
2023-02-27T19:11:38.823Z,3.10
2023-02-27T19:14:09.142Z,3.20
2023-02-27T19:16:36.617Z,3.20
2023-02-27T19:19:04.954Z,3.30
2023-02-27T19:21:32.637Z,3.20
2023-02-27T19:24:00.700Z,3.10
2023-02-27T19:26:28.683Z,3.10
2023-02-27T19:28:56.326Z,3.10
2023-02-27T19:31:25.121Z,3.10
2023-02-27T19:33:52.643Z,3.00
2023-02-27T19:36:21.902Z,3.00
2023-02-27T19:38:49.441Z,3.00
2023-02-27T19:41:17.359Z,3.00
2023-02-27T19:43:45.758Z,3.00
2023-02-27T19:46:20.163Z,3.00
2023-02-27T19:48:48.202Z,3.00
2023-02-27T19:51:16.293Z,2.90
2023-02-27T19:53:48.220Z,2.90
2023-02-27T19:56:26.939Z,2.90
2023-02-27T19:58:54.519Z,2.80
2023-02-27T20:01:34.316Z,2.80
2023-02-27T20:04:02.769Z,2.90
2023-02-27T20:06:33.388Z,2.90
2023-02-27T20:09:00.556Z,2.90
2023-02-27T20:11:31.887Z,3.00
2023-02-27T20:13:59.154Z,2.90
2023-02-27T20:16:28.799Z,2.90
2023-02-27T20:18:56.777Z,2.90
2023-02-27T20:21:26.806Z,2.90
2023-02-27T20:23:54.706Z,2.90
2023-02-27T20:26:28.671Z,2.90
2023-02-27T20:28:59.734Z,2.90
2023-02-27T20:31:29.680Z,3.00
2023-02-27T20:33:58.048Z,3.00
2023-02-27T20:36:25.483Z,3.00
2023-02-27T20:38:52.765Z,3.00
2023-02-27T20:41:22.855Z,3.00
2023-02-27T20:43:50.145Z,3.00
2023-02-27T20:46:22.089Z,3.00
2023-02-27T20:48:49.632Z,3.00
2023-02-27T20:51:21.807Z,3.10
2023-02-27T20:53:56.085Z,3.10
2023-02-27T20:56:27.360Z,3.00
2023-02-27T20:58:59.792Z,3.00
2023-02-27T21:01:28.006Z,3.00
2023-02-27T21:03:58.253Z,3.00
2023-02-27T21:06:26.511Z,3.00
2023-02-27T21:08:56.516Z,3.10
2023-02-27T21:11:29.212Z,3.00
2023-02-27T21:14:02.042Z,3.00
2023-02-27T21:16:30.591Z,3.00
2023-02-27T21:18:58.978Z,2.90
2023-02-27T21:21:30.665Z,2.90
2023-02-27T21:23:59.626Z,2.90
2023-02-27T21:26:37.948Z,3.00
2023-02-27T21:29:10.551Z,3.00
2023-02-27T21:31:39.741Z,3.00
2023-02-27T21:34:12.649Z,3.00
2023-02-27T21:36:42.628Z,2.90
2023-02-27T21:39:16.025Z,2.80
2023-02-27T21:41:43.362Z,2.70
2023-02-27T21:44:15.220Z,2.60
2023-02-27T21:46:42.888Z,2.50
2023-02-27T21:49:17.492Z,2.40
2023-02-27T21:51:45.263Z,2.20
2023-02-27T21:54:14.363Z,2.10
2023-02-27T21:56:43.295Z,2.00
2023-02-27T21:59:10.711Z,1.90
2023-02-27T22:01:38.683Z,1.90
2023-02-27T22:04:06.757Z,1.90
2023-02-27T22:06:35.154Z,1.80
2023-02-27T22:09:05.927Z,1.80
2023-02-27T22:11:34.394Z,1.70
2023-02-27T22:14:02.973Z,1.70
2023-02-27T22:16:30.185Z,1.70
2023-02-27T22:18:57.345Z,1.70
2023-02-27T22:21:27.780Z,1.60
2023-02-27T22:23:57.735Z,1.70
2023-02-27T22:26:28.286Z,1.60
2023-02-27T22:28:57.109Z,1.60
2023-02-27T22:31:31.658Z,1.60
2023-02-27T22:34:06.870Z,1.50
2023-02-27T22:36:35.014Z,1.50
2023-02-27T22:39:03.513Z,1.40
2023-02-27T22:41:34.580Z,1.40
2023-02-27T22:44:02.602Z,1.40
2023-02-27T22:46:33.436Z,1.40
2023-02-27T22:49:22.604Z,1.30
2023-02-27T22:51:51.900Z,1.30
2023-02-27T22:54:22.703Z,1.20
2023-02-27T22:56:52.407Z,1.20
2023-02-27T22:59:20.349Z,1.20
2023-02-27T23:01:48.586Z,1.10
2023-02-27T23:04:19.664Z,1.10
2023-02-27T23:06:46.928Z,1.10
2023-02-27T23:09:18.641Z,1.00
2023-02-27T23:11:46.243Z,0.90
2023-02-27T23:14:14.129Z,0.90
2023-02-27T23:16:45.891Z,0.90
2023-02-27T23:19:16.114Z,0.80
2023-02-27T23:21:43.244Z,0.80
2023-02-27T23:24:16.053Z,0.70
2023-02-27T23:26:47.415Z,0.70
2023-02-27T23:29:15.074Z,0.70
2023-02-27T23:31:42.533Z,0.70
2023-02-27T23:34:10.071Z,0.60
2023-02-27T23:36:38.552Z,0.60
2023-02-27T23:39:07.398Z,0.60
2023-02-27T23:41:34.916Z,0.60
2023-02-27T23:44:20.981Z,0.50
2023-02-27T23:46:48.127Z,0.50
2023-02-27T23:49:15.349Z,0.50
2023-02-27T23:51:42.431Z,0.50
2023-02-27T23:54:10.507Z,0.50
2023-02-27T23:56:37.601Z,0.40
2023-02-27T23:59:06.567Z,0.40
